This is the latest recevied weather packets stored in our database for station/object KF6GPE. If no packets are shown the sender has not sent any weather packets the latest 10 day(s).
| Time | Temp. | Humidity | Pressure | Rain* | Wind** | Luminosity | Snow |
|---|---|---|---|---|---|---|---|
| 1777690803 | 13.33° C | 86% | 986 hPa | 0 mm | - | 1000 W/m² | - |
| 1777690202 | 13.89° C | 84% | 985.9 hPa | 0 mm | - | 1000 W/m² | - |
| 1777689603 | 14.44° C | 83% | 985.9 hPa | 0 mm | - | 1000 W/m² | - |
| 1777689003 | 15° C | 82% | 985.7 hPa | 0 mm | - | 1000 W/m² | - |
| 1777674003 | 23.89° C | 60% | 986.3 hPa | 0 mm | - | 1075 W/m² | - |
| 1777660204 | 18.33° C | 69% | 988.3 hPa | 0 mm | - | 1082 W/m² | - |
| 1777657203 | 16.67° C | 75% | 988.7 hPa | 0 mm | - | 1074 W/m² | - |
| 1777650003 | 10.56° C | 93% | 988.6 hPa | 0 mm | - | 1002 W/m² | - |
| 1777649402 | 10° C | 93% | 988.5 hPa | 0 mm | - | 1002 W/m² | - |
| 1777648803 | 10° C | 94% | 988.3 hPa | 0 mm | - | 1002 W/m² | - |
| 1777648203 | 9.44° C | 95% | 988.2 hPa | 0 mm | - | 1002 W/m² | - |
| 1777647003 | 9.44° C | 95% | 988 hPa | 0 mm | - | 1002 W/m² | - |
| 1777646403 | 8.89° C | 94% | 987.9 hPa | 0 mm | - | 1001 W/m² | - |
| 1777645803 | 8.89° C | 94% | 987.9 hPa | 0 mm | - | 1002 W/m² | - |
| 1777645204 | 8.33° C | 94% | 987.9 hPa | 0 mm | - | 1002 W/m² | - |
| 1777644603 | 8.33° C | 94% | 987.8 hPa | 0 mm | - | 1001 W/m² | - |
| 1777642802 | 8.33° C | 95% | 987.8 hPa | 0 mm | - | 1000 W/m² | - |
| 1777642203 | 8.33° C | 95% | 987.7 hPa | 0 mm | - | 1000 W/m² | - |
| 1777638004 | 8.33° C | 96% | 987.4 hPa | 0 mm | - | 1000 W/m² | - |
| 1777635603 | 7.78° C | 96% | 987.4 hPa | 0 mm | - | 1000 W/m² | - |
| 1777635003 | 8.33° C | 96% | 987.3 hPa | 0 mm | - | 1000 W/m² | - |
| 1777634403 | 8.33° C | 95% | 987.2 hPa | 0 mm | - | 1000 W/m² | - |
| 1777633803 | 8.33° C | 95% | 987.1 hPa | 0 mm | - | 1000 W/m² | - |
| 1777633203 | 8.33° C | 95% | 987.2 hPa | 0 mm | - | 1000 W/m² | - |
| 1777632603 | 8.33° C | 95% | 987.2 hPa | 0 mm | - | 1000 W/m² | - |
* Rain latest hour (hover to see other rain measurements)
** Current wind speed in m/s (hover to see current wind gust speed)